createdAt,value
2022-09-20T00:01:09.650Z,2.43
2022-09-20T00:03:38.274Z,4.30
2022-09-20T00:06:06.977Z,5.60
2022-09-20T00:08:34.306Z,5.17
2022-09-20T00:11:10.041Z,6.70
2022-09-20T00:13:38.893Z,6.43
2022-09-20T00:16:08.262Z,8.47
2022-09-20T00:18:35.884Z,8.47
2022-09-20T00:21:03.820Z,8.07
2022-09-20T00:23:31.136Z,9.17
2022-09-20T00:26:02.500Z,7.63
2022-09-20T00:28:29.929Z,8.20
2022-09-20T00:30:57.206Z,7.73
2022-09-20T00:33:45.345Z,9.90
2022-09-20T00:36:12.192Z,8.83
2022-09-20T00:38:38.785Z,12.47
2022-09-20T00:41:05.880Z,11.03
2022-09-20T00:43:50.429Z,13.23
2022-09-20T00:46:40.460Z,10.73
2022-09-20T00:49:20.994Z,8.57
2022-09-20T00:51:57.846Z,10.17
2022-09-20T00:54:25.743Z,6.13
2022-09-20T00:56:52.585Z,6.00
2022-09-20T00:59:30.858Z,5.00
2022-09-20T01:02:10.721Z,4.73
2022-09-20T01:04:40.201Z,4.90
2022-09-20T01:07:09.260Z,3.40
2022-09-20T01:09:36.250Z,5.97
2022-09-20T01:12:13.605Z,7.80
2022-09-20T01:14:42.690Z,5.00
2022-09-20T01:17:10.381Z,3.63
2022-09-20T01:19:49.460Z,4.13
2022-09-20T01:22:27.566Z,4.73
2022-09-20T01:25:23.129Z,4.13
2022-09-20T01:27:52.303Z,4.20
2022-09-20T01:30:55.361Z,3.17
2022-09-20T01:33:40.314Z,4.20
2022-09-20T01:36:09.076Z,38.70
2022-09-20T01:39:07.600Z,10.23
2022-09-20T01:41:48.836Z,11.07
2022-09-20T01:44:46.060Z,13.37
2022-09-20T01:47:44.138Z,11.77
2022-09-20T01:50:25.025Z,13.63
2022-09-20T01:53:05.533Z,3.33
2022-09-20T01:55:41.089Z,5.40
2022-09-20T01:58:29.579Z,6.27
2022-09-20T02:01:13.148Z,9.73
2022-09-20T02:04:15.599Z,2.53
2022-09-20T02:06:48.600Z,8.40
2022-09-20T02:09:30.560Z,8.10
2022-09-20T02:12:50.724Z,4.40
2022-09-20T02:15:45.586Z,3.40
2022-09-20T02:18:34.321Z,3.20
2022-09-20T02:21:32.643Z,13.90
2022-09-20T02:24:29.288Z,5.83
2022-09-20T02:27:17.288Z,26.83
2022-09-20T02:30:00.489Z,4.33
2022-09-20T02:32:39.032Z,6.10
2022-09-20T02:35:12.246Z,15.70
2022-09-20T02:37:38.882Z,7.30
2022-09-20T02:40:27.586Z,7.57
2022-09-20T02:43:33.337Z,14.23
2022-09-20T02:46:23.837Z,9.27
2022-09-20T02:49:19.769Z,9.73
2022-09-20T02:52:25.097Z,3.43
2022-09-20T02:55:00.290Z,3.20
2022-09-20T02:58:05.452Z,7.57
2022-09-20T03:00:46.125Z,4.07
2022-09-20T03:03:34.628Z,6.03
2022-09-20T03:06:07.043Z,7.03
2022-09-20T03:08:50.836Z,6.47
2022-09-20T03:11:39.185Z,16.73
2022-09-20T03:14:24.393Z,2.10
2022-09-20T03:17:18.832Z,6.40
2022-09-20T03:20:17.577Z,4.37
2022-09-20T03:23:12.302Z,1.47
2022-09-20T03:26:18.423Z,18.87
2022-09-20T03:28:58.344Z,1.63
2022-09-20T03:31:54.599Z,2.40
2022-09-20T03:34:56.276Z,3.57
2022-09-20T03:37:58.671Z,4.63
2022-09-20T03:41:03.424Z,5.50
2022-09-20T03:43:52.617Z,5.57
2022-09-20T03:46:34.660Z,4.50
2022-09-20T03:49:31.992Z,5.10
2022-09-20T03:52:05.632Z,3.63
2022-09-20T03:55:04.026Z,5.03
2022-09-20T03:57:48.849Z,5.43
2022-09-20T04:00:39.673Z,4.83
2022-09-20T04:03:12.220Z,4.97
2022-09-20T04:06:06.622Z,4.90
2022-09-20T04:09:04.595Z,3.87
2022-09-20T04:11:42.761Z,3.17
2022-09-20T04:14:23.206Z,3.33
2022-09-20T04:17:00.728Z,3.47
2022-09-20T04:19:38.120Z,3.47
2022-09-20T04:22:07.337Z,4.00
2022-09-20T04:24:56.174Z,2.40
2022-09-20T04:27:31.876Z,2.37
2022-09-20T04:30:07.516Z,3.13
2022-09-20T04:32:44.720Z,3.10
2022-09-20T04:35:48.932Z,3.07
2022-09-20T04:38:19.485Z,4.23
2022-09-20T04:41:17.044Z,2.80
2022-09-20T04:44:08.893Z,5.00
2022-09-20T04:47:03.397Z,3.77
2022-09-20T04:50:02.293Z,3.10
2022-09-20T04:52:58.520Z,4.30
2022-09-20T04:55:55.988Z,5.07
2022-09-20T04:58:36.299Z,6.40
2022-09-20T05:01:16.710Z,4.97
2022-09-20T05:04:20.445Z,4.70
2022-09-20T05:07:08.808Z,5.23
2022-09-20T05:09:54.368Z,4.70
2022-09-20T05:13:05.371Z,4.83
2022-09-20T05:15:59.584Z,5.27
2022-09-20T05:18:34.768Z,4.30
2022-09-20T05:21:10.913Z,3.73
2022-09-20T05:23:49.808Z,4.37
2022-09-20T05:26:41.987Z,6.07
2022-09-20T05:29:26.653Z,4.40
2022-09-20T05:32:06.569Z,4.40
2022-09-20T05:34:46.272Z,5.03
2022-09-20T05:37:30.972Z,3.90
2022-09-20T05:40:32.811Z,5.03
2022-09-20T05:43:41.556Z,3.83
2022-09-20T05:46:36.832Z,4.73
2022-09-20T05:49:21.100Z,4.07
2022-09-20T05:52:25.684Z,7.37
2022-09-20T05:55:30.741Z,3.70
2022-09-20T05:58:23.905Z,3.77
2022-09-20T06:01:01.158Z,4.73
2022-09-20T06:03:41.704Z,3.97
2022-09-20T06:06:18.254Z,3.77
2022-09-20T06:09:10.977Z,4.43
2022-09-20T06:11:56.321Z,3.97
2022-09-20T06:15:04.811Z,3.57
2022-09-20T06:17:38.639Z,3.90
2022-09-20T06:20:11.338Z,3.77
2022-09-20T06:22:55.273Z,4.30
2022-09-20T06:25:45.121Z,5.17
2022-09-20T06:28:21.073Z,5.47
2022-09-20T06:30:48.635Z,9.13
2022-09-20T06:33:18.110Z,12.87
2022-09-20T06:36:24.638Z,10.00
2022-09-20T06:39:22.241Z,13.03
2022-09-20T06:41:49.517Z,10.33
2022-09-20T06:44:17.770Z,15.83
2022-09-20T06:46:44.511Z,13.10
2022-09-20T06:49:11.124Z,14.33
2022-09-20T06:51:39.334Z,14.03
2022-09-20T06:54:14.184Z,13.90
2022-09-20T06:56:41.132Z,16.20
2022-09-20T06:59:08.518Z,12.87
2022-09-20T07:01:35.791Z,16.20
2022-09-20T07:04:03.341Z,17.57
2022-09-20T07:06:30.337Z,20.23
2022-09-20T07:08:56.941Z,18.70
2022-09-20T07:11:24.134Z,20.23
2022-09-20T07:13:52.461Z,19.50
2022-09-20T07:16:20.085Z,20.50
2022-09-20T07:18:47.724Z,21.07
2022-09-20T07:21:16.736Z,19.30
2022-09-20T07:23:45.925Z,19.63
2022-09-20T07:26:25.459Z,19.07
2022-09-20T07:28:52.757Z,19.33
2022-09-20T07:31:21.563Z,22.97
2022-09-20T07:33:49.081Z,19.53
2022-09-20T07:36:19.292Z,19.20
2022-09-20T07:38:50.545Z,21.23
2022-09-20T07:41:22.777Z,19.73
2022-09-20T07:43:50.694Z,20.30
2022-09-20T07:46:18.126Z,21.53
2022-09-20T07:48:44.913Z,19.17
2022-09-20T07:51:13.537Z,22.03
2022-09-20T07:53:40.788Z,22.10
2022-09-20T07:56:11.788Z,22.10
2022-09-20T07:58:38.854Z,21.13
2022-09-20T08:01:21.178Z,23.10
2022-09-20T08:03:48.072Z,24.77
2022-09-20T08:06:16.394Z,21.33
2022-09-20T08:08:43.504Z,20.07
2022-09-20T08:11:11.768Z,20.77
2022-09-20T08:16:32.422Z,18.17
2022-09-20T08:19:01.839Z,20.23
2022-09-20T08:21:31.854Z,19.97
2022-09-20T08:23:59.796Z,17.63
2022-09-20T08:26:28.623Z,18.10
2022-09-20T08:28:57.109Z,19.73
2022-09-20T08:31:26.335Z,18.57
2022-09-20T08:33:54.473Z,18.43
2022-09-20T08:36:24.575Z,19.57
2022-09-20T08:41:48.159Z,15.73
2022-09-20T08:44:14.779Z,17.33
2022-09-20T08:47:16.013Z,15.30
2022-09-20T08:49:46.032Z,14.93
2022-09-20T08:52:36.353Z,12.93
2022-09-20T08:55:22.012Z,11.05
2022-09-20T08:57:57.288Z,11.50
2022-09-20T09:00:32.313Z,10.35
2022-09-20T09:03:07.662Z,9.70
2022-09-20T09:05:37.760Z,9.60
2022-09-20T09:08:37.615Z,8.88
2022-09-20T09:11:13.617Z,8.20
2022-09-20T09:13:49.418Z,7.55
2022-09-20T09:16:23.091Z,7.60
2022-09-20T09:18:53.223Z,7.80
2022-09-20T09:21:21.405Z,8.45
2022-09-20T09:24:01.078Z,7.47
2022-09-20T09:26:29.350Z,7.68
2022-09-20T09:29:16.273Z,6.63
2022-09-20T09:31:45.053Z,6.47
2022-09-20T09:34:29.849Z,8.35
2022-09-20T09:36:58.100Z,5.40
2022-09-20T09:39:30.150Z,7.63
2022-09-20T09:42:01.604Z,9.13
2022-09-20T09:44:33.795Z,6.18
2022-09-20T09:47:01.052Z,5.90
2022-09-20T09:49:33.281Z,6.23
2022-09-20T09:52:13.042Z,6.53
2022-09-20T09:54:42.260Z,8.40
2022-09-20T09:57:10.819Z,6.47
2022-09-20T09:59:52.739Z,6.17
2022-09-20T10:02:28.149Z,6.10
2022-09-20T10:05:11.005Z,7.77
2022-09-20T10:07:49.404Z,7.63
2022-09-20T10:10:37.765Z,6.23
2022-09-20T10:13:11.910Z,5.47
2022-09-20T10:16:00.449Z,6.70
2022-09-20T10:18:31.809Z,7.47
2022-09-20T10:21:08.336Z,5.27
2022-09-20T10:24:04.855Z,4.90
2022-09-20T10:27:00.434Z,7.10
2022-09-20T10:29:30.125Z,4.13
2022-09-20T10:32:03.880Z,6.37
2022-09-20T10:35:03.615Z,3.70
2022-09-20T10:37:33.724Z,7.03
2022-09-20T10:40:15.582Z,3.90
2022-09-20T10:43:08.040Z,4.83
2022-09-20T10:46:30.337Z,5.87
2022-09-20T10:49:23.738Z,5.43
2022-09-20T10:52:31.538Z,5.00
2022-09-20T10:55:13.198Z,4.27
2022-09-20T10:57:58.494Z,6.30
2022-09-20T11:00:48.531Z,10.45
2022-09-20T11:03:30.032Z,4.25
2022-09-20T11:06:21.457Z,2.58
2022-09-20T11:08:54.085Z,3.08
2022-09-20T11:11:31.013Z,4.53
2022-09-20T11:14:13.201Z,3.25
2022-09-20T11:16:45.693Z,2.97
2022-09-20T11:19:50.485Z,2.28
2022-09-20T11:22:43.205Z,4.05
2022-09-20T11:25:22.307Z,4.13
2022-09-20T11:27:58.016Z,1.92
2022-09-20T11:30:25.517Z,2.47
2022-09-20T11:33:05.960Z,2.55
2022-09-20T11:35:40.477Z,2.45
2022-09-20T11:38:28.010Z,2.57
2022-09-20T11:41:05.117Z,2.57
2022-09-20T11:43:32.974Z,2.10
2022-09-20T11:46:04.463Z,2.37
2022-09-20T11:48:52.394Z,2.60
2022-09-20T11:51:22.008Z,1.57
2022-09-20T11:54:03.769Z,1.40
2022-09-20T11:56:33.830Z,1.67
2022-09-20T11:59:07.353Z,1.43
2022-09-20T12:01:42.915Z,1.63
2022-09-20T12:04:32.494Z,1.37
2022-09-20T12:07:09.763Z,1.43
2022-09-20T12:09:43.321Z,2.07
2022-09-20T12:12:15.103Z,1.27
2022-09-20T12:14:42.319Z,2.03
2022-09-20T12:17:44.087Z,1.13
2022-09-20T12:20:32.891Z,1.70
2022-09-20T12:23:36.701Z,1.17
2022-09-20T12:26:06.877Z,1.30
2022-09-20T12:28:39.472Z,1.53
2022-09-20T12:31:18.638Z,2.40
2022-09-20T12:34:15.912Z,2.57
2022-09-20T12:36:55.938Z,4.07
2022-09-20T12:39:37.574Z,2.53
2022-09-20T12:42:10.120Z,2.77
2022-09-20T12:44:41.100Z,1.97
2022-09-20T12:47:10.602Z,2.63
2022-09-20T12:50:04.661Z,2.10
2022-09-20T12:53:03.815Z,2.80
2022-09-20T12:55:52.864Z,2.07
2022-09-20T12:58:23.685Z,3.87
2022-09-20T13:00:59.519Z,1.90
2022-09-20T13:03:38.785Z,2.17
2022-09-20T13:06:10.910Z,3.30
2022-09-20T13:09:04.410Z,2.03
2022-09-20T13:11:55.815Z,2.57
2022-09-20T13:14:28.869Z,2.27
2022-09-20T13:17:15.983Z,2.13
2022-09-20T13:19:47.564Z,2.43
2022-09-20T13:22:37.078Z,2.57
2022-09-20T13:25:07.108Z,2.67
2022-09-20T13:27:38.358Z,3.03
2022-09-20T13:30:21.543Z,2.97
2022-09-20T13:32:50.296Z,3.07
2022-09-20T13:35:19.585Z,4.13
2022-09-20T13:38:09.176Z,4.10
2022-09-20T13:40:39.449Z,2.50
2022-09-20T13:43:27.663Z,2.00
2022-09-20T13:45:59.879Z,3.37
2022-09-20T13:48:28.476Z,2.17
2022-09-20T13:50:56.404Z,4.23
2022-09-20T13:53:40.520Z,1.87
2022-09-20T13:56:25.567Z,4.47
2022-09-20T13:58:53.249Z,3.03
2022-09-20T14:01:30.408Z,3.10
2022-09-20T14:04:13.260Z,4.30
2022-09-20T14:06:40.361Z,1.73
2022-09-20T14:09:15.029Z,1.53
2022-09-20T14:11:41.912Z,4.27
2022-09-20T14:14:12.209Z,3.03
2022-09-20T14:16:40.877Z,2.63
2022-09-20T14:19:08.852Z,3.40
2022-09-20T14:21:37.098Z,3.20
2022-09-20T14:24:26.049Z,3.50
2022-09-20T14:27:22.348Z,2.00
2022-09-20T14:29:53.750Z,2.13
2022-09-20T14:32:20.561Z,2.87
2022-09-20T14:34:56.613Z,3.20
2022-09-20T14:37:33.776Z,2.73
2022-09-20T14:40:25.271Z,2.20
2022-09-20T14:42:55.507Z,2.30
2022-09-20T14:45:32.410Z,3.90
2022-09-20T14:48:00.853Z,3.15
2022-09-20T14:50:32.516Z,1.70
2022-09-20T14:53:12.646Z,2.33
2022-09-20T14:55:42.324Z,4.63
2022-09-20T14:58:14.317Z,2.23
2022-09-20T15:01:02.073Z,3.97
2022-09-20T15:03:38.521Z,2.33
2022-09-20T15:06:06.763Z,2.00
2022-09-20T15:08:36.892Z,3.27
2022-09-20T15:11:04.169Z,1.50
2022-09-20T15:13:31.011Z,1.53
2022-09-20T15:15:58.806Z,3.23
2022-09-20T15:18:26.936Z,1.30
2022-09-20T15:20:55.038Z,2.07
2022-09-20T15:23:22.156Z,2.20
2022-09-20T15:25:54.176Z,3.57
2022-09-20T15:28:21.400Z,1.50
2022-09-20T15:30:50.477Z,3.13
2022-09-20T15:33:18.554Z,2.00
2022-09-20T15:35:45.774Z,2.07
2022-09-20T15:38:14.132Z,2.50
2022-09-20T15:40:47.430Z,3.10
2022-09-20T15:43:17.732Z,1.30
2022-09-20T15:45:50.481Z,3.23
2022-09-20T15:48:20.803Z,5.10
2022-09-20T15:51:06.877Z,2.30
2022-09-20T15:53:36.619Z,2.47
2022-09-20T15:56:05.463Z,3.97
2022-09-20T15:58:36.332Z,1.97
2022-09-20T16:01:08.396Z,1.83
2022-09-20T16:03:36.324Z,3.17
2022-09-20T16:06:05.846Z,2.77
2022-09-20T16:08:34.044Z,2.63
2022-09-20T16:11:01.465Z,3.57
2022-09-20T16:13:28.865Z,2.93
2022-09-20T16:15:57.184Z,1.93
2022-09-20T16:18:43.473Z,3.27
2022-09-20T16:21:12.657Z,1.97
2022-09-20T16:23:41.512Z,2.00
2022-09-20T16:26:12.954Z,3.37
2022-09-20T16:28:47.274Z,2.10
2022-09-20T16:31:48.901Z,2.57
2022-09-20T16:34:23.976Z,2.37
2022-09-20T16:36:53.035Z,2.77
2022-09-20T16:39:21.012Z,2.87
2022-09-20T16:41:48.827Z,2.07
2022-09-20T16:44:15.653Z,1.53
2022-09-20T16:46:44.563Z,2.90
2022-09-20T16:49:12.941Z,2.50
2022-09-20T16:51:41.492Z,1.63
2022-09-20T16:54:13.896Z,3.10
2022-09-20T16:56:46.428Z,1.53
2022-09-20T16:59:15.689Z,1.83
2022-09-20T17:01:43.308Z,2.17
2022-09-20T17:04:14.001Z,1.73
2022-09-20T17:06:43.427Z,2.03
2022-09-20T17:09:11.197Z,1.73
2022-09-20T17:11:49.944Z,2.57
2022-09-20T17:14:18.636Z,1.73
2022-09-20T17:16:49.074Z,2.60
2022-09-20T17:19:18.980Z,3.53
2022-09-20T17:21:49.960Z,2.93
2022-09-20T17:24:18.976Z,3.03
2022-09-20T17:26:46.565Z,3.60
2022-09-20T17:29:16.235Z,1.70
2022-09-20T17:31:48.779Z,2.77
2022-09-20T17:34:21.542Z,3.10
2022-09-20T17:36:50.168Z,2.23
2022-09-20T17:39:17.237Z,2.97
2022-09-20T17:41:46.644Z,2.43
2022-09-20T17:44:14.046Z,4.37
2022-09-20T17:46:43.117Z,4.60
2022-09-20T17:49:14.875Z,2.37
2022-09-20T17:51:46.869Z,4.13
2022-09-20T17:54:14.299Z,2.07
2022-09-20T17:56:46.287Z,3.77
2022-09-20T17:59:16.207Z,2.93
2022-09-20T18:01:44.674Z,2.43
2022-09-20T18:04:11.525Z,3.87
2022-09-20T18:06:47.453Z,5.23
2022-09-20T18:09:16.206Z,5.90
2022-09-20T18:11:46.364Z,6.10
2022-09-20T18:14:13.532Z,6.13
2022-09-20T18:16:40.515Z,6.00
2022-09-20T18:19:08.552Z,5.67
2022-09-20T18:21:36.664Z,4.33
2022-09-20T18:24:08.893Z,5.50
2022-09-20T18:26:36.778Z,4.43
2022-09-20T18:29:04.025Z,5.13
2022-09-20T18:31:45.015Z,4.53
2022-09-20T18:34:18.383Z,11.23
2022-09-20T18:36:54.010Z,10.43
2022-09-20T18:39:22.001Z,10.07
2022-09-20T18:41:50.371Z,8.67
2022-09-20T18:44:18.422Z,4.60
2022-09-20T18:46:48.972Z,3.57
2022-09-20T18:49:17.047Z,3.83
2022-09-20T18:51:44.563Z,3.83
2022-09-20T18:54:11.983Z,4.33
2022-09-20T18:56:40.839Z,3.47
2022-09-20T18:59:19.456Z,5.83
2022-09-20T19:01:55.470Z,3.60
2022-09-20T19:04:37.306Z,2.53
2022-09-20T19:07:22.528Z,3.93
2022-09-20T19:09:49.197Z,3.50
2022-09-20T19:12:39.399Z,3.57
2022-09-20T19:15:29.152Z,2.30
2022-09-20T19:18:25.200Z,4.40
2022-09-20T19:21:28.193Z,1.90
2022-09-20T19:24:17.053Z,2.77
2022-09-20T19:26:44.731Z,2.83
2022-09-20T19:29:24.749Z,4.03
2022-09-20T19:31:59.129Z,2.70
2022-09-20T19:34:30.381Z,2.73
2022-09-20T19:37:23.202Z,3.43
2022-09-20T19:40:24.989Z,3.97
2022-09-20T19:43:15.612Z,3.77
2022-09-20T19:46:06.315Z,2.70
2022-09-20T19:48:39.193Z,3.80
2022-09-20T19:51:11.005Z,2.83
2022-09-20T19:53:39.163Z,3.03
2022-09-20T19:56:25.718Z,3.57
2022-09-20T19:58:54.934Z,2.80
2022-09-20T20:01:23.134Z,2.47
2022-09-20T20:03:50.773Z,3.07
2022-09-20T20:06:57.153Z,3.77
2022-09-20T20:09:50.415Z,4.27
2022-09-20T20:12:41.558Z,3.50
2022-09-20T20:15:21.602Z,3.53
2022-09-20T20:18:05.066Z,6.73
2022-09-20T20:20:39.511Z,5.83
2022-09-20T20:23:21.147Z,5.43
2022-09-20T20:26:09.938Z,5.13
2022-09-20T20:28:37.057Z,3.13
2022-09-20T20:31:04.491Z,5.03
2022-09-20T20:33:32.776Z,4.43
2022-09-20T20:36:01.137Z,2.83
2022-09-20T20:38:28.548Z,4.37
2022-09-20T20:41:07.165Z,3.07
2022-09-20T20:43:36.285Z,3.37
2022-09-20T20:46:04.194Z,3.33
2022-09-20T20:48:31.179Z,3.60
2022-09-20T20:51:01.149Z,2.53
2022-09-20T20:53:36.737Z,2.83
2022-09-20T20:56:05.695Z,3.53
2022-09-20T20:58:32.449Z,3.77
2022-09-20T21:01:07.243Z,4.20
2022-09-20T21:03:34.373Z,5.23
2022-09-20T21:06:01.795Z,4.80
2022-09-20T21:08:36.560Z,4.50
2022-09-20T21:11:06.450Z,4.80
2022-09-20T21:13:33.180Z,3.20
2022-09-20T21:16:05.611Z,3.27
2022-09-20T21:18:33.830Z,4.27
2022-09-20T21:21:02.476Z,3.50
2022-09-20T21:23:33.952Z,4.63
2022-09-20T21:26:12.369Z,3.97
2022-09-20T21:28:41.690Z,3.43
2022-09-20T21:31:10.502Z,3.00
2022-09-20T21:33:42.492Z,4.30
2022-09-20T21:36:12.816Z,3.17
2022-09-20T21:38:41.080Z,2.77
2022-09-20T21:41:13.646Z,3.93
2022-09-20T21:43:42.736Z,3.57
2022-09-20T21:46:15.575Z,2.83
2022-09-20T21:48:42.256Z,2.20
2022-09-20T21:51:10.731Z,2.93
2022-09-20T21:53:39.223Z,1.67
2022-09-20T21:56:10.702Z,3.03
2022-09-20T21:58:40.795Z,4.07
2022-09-20T22:01:11.612Z,5.27
2022-09-20T22:03:41.248Z,4.80
2022-09-20T22:06:19.612Z,4.30
2022-09-20T22:08:51.845Z,4.77
2022-09-20T22:11:20.260Z,4.17
2022-09-20T22:13:49.620Z,4.07
2022-09-20T22:16:26.594Z,3.03
2022-09-20T22:18:54.276Z,3.57
2022-09-20T22:21:23.686Z,3.87
2022-09-20T22:23:53.209Z,3.60
2022-09-20T22:26:22.038Z,3.90
2022-09-20T22:28:52.402Z,3.13
2022-09-20T22:31:22.485Z,3.73
2022-09-20T22:33:51.800Z,3.17
2022-09-20T22:36:21.933Z,3.37
2022-09-20T22:38:49.212Z,5.83
2022-09-20T22:41:18.137Z,4.07
2022-09-20T22:43:45.351Z,3.03
2022-09-20T22:46:23.969Z,4.17
2022-09-20T22:48:51.048Z,3.87
2022-09-20T22:51:19.774Z,5.23
2022-09-20T22:53:47.561Z,4.83
2022-09-20T22:56:16.931Z,3.23
2022-09-20T22:58:46.141Z,3.50
2022-09-20T23:01:18.632Z,4.33
2022-09-20T23:03:47.669Z,3.83
2022-09-20T23:06:20.961Z,4.20
2022-09-20T23:08:52.578Z,3.63
2022-09-20T23:11:20.171Z,4.33
2022-09-20T23:13:47.832Z,4.07
2022-09-20T23:16:19.736Z,4.50
2022-09-20T23:18:47.671Z,3.50
2022-09-20T23:21:14.921Z,3.23
2022-09-20T23:23:45.210Z,3.73
2022-09-20T23:26:17.769Z,3.30
2022-09-20T23:28:51.832Z,4.97
2022-09-20T23:31:18.624Z,3.30
2022-09-20T23:33:56.980Z,3.70
2022-09-20T23:36:25.329Z,3.17
2022-09-20T23:38:52.518Z,3.83
2022-09-20T23:41:21.284Z,3.83
2022-09-20T23:43:48.809Z,3.37
2022-09-20T23:46:17.668Z,3.57
2022-09-20T23:48:44.776Z,6.53
2022-09-20T23:51:14.327Z,4.20
2022-09-20T23:53:41.893Z,6.50
2022-09-20T23:56:09.876Z,4.03
2022-09-20T23:58:37.440Z,3.27
